Terminal Aerodrome Forecast
Issued by NWS San Angelo, TX

Current Version | Previous Version | Text Only | Print | Product List | Glossary Off
Versions: 1 2 3 4 5 6 7 8 9 10 11 12 13 14

388
FTUS44 KSJT 192325
TAFABI
TAF
KABI 192325Z 2000/2024 15011KT P6SM BKN250
     FM201000 15012KT P6SM VCSH BKN020
     FM201600 17013G22KT P6SM VCSH BKN035
     FM202000 18012G20KT P6SM BKN050=

USA.gov is the U.S. government's official web portal to all federal, state and local government web resources and services.